Strona główna
METAR-TAF:

METAR-TAF

Lotnisko :

Lonesome Pine Airport

Wise, Wirginia, Stany Zjednoczone

Szerokość geograficzna: 36-59N, Długość geograficzna: 082-32W, wysokość: 817 m

Aktualna obserwacja pogody

Raport powstał 23 minut temu, godzina 06:35 UTC
Wiatr 4 kt od północ
Temperatura 13°C
Wilgotność 67%
Ciśnienie 1020 hPa
Widzialność: 16.1 km
Rozproszone chmury na wysokości 6500 ft

METAR: KLNP 060635Z AUTO 36004KT 10SM SCT065 13/07 A3012 RMK AO2

czas: 02:58 (06:58 UTC)


TAF: brakujący

Obserwacja i prognoza pogody dla ponad 4000 lotnisk (raport METAR i TAF).

Dostępne stacje oznaczono żółtymi i czerwonymi punktami na mapie.

Najedź kursorem aby zobaczyć nazwę stacji.

Kliknij aby zobaczyć obserwacje i prognozy pogody.

Aby zmienić mapę: kliknij na zielony przycisk z czarnym krzyżykiem, aby powiększyć; na zielony przycisk z myślnikiem, aby pomniejszyć; na zielone strzałki, aby przejść do map sąsiednich.


METAR-TAF: